sensor_id;sensor_type;location;lat;lon;timestamp;pressure;altitude;pressure_sealevel;temperature;humidity
24302;BME280;12421;49.732;20.078;2023-08-08T00:01:43;96478.14;;;15.17;84.80
24302;BME280;12421;49.732;20.078;2023-08-08T00:11:57;96483.52;;;15.10;83.85
24302;BME280;12421;49.732;20.078;2023-08-08T00:22:13;96486.73;;;15.09;84.07
24302;BME280;12421;49.732;20.078;2023-08-08T00:32:33;96495.30;;;15.02;84.40
24302;BME280;12421;49.732;20.078;2023-08-08T00:42:37;96501.51;;;15.16;84.45
24302;BME280;12421;49.732;20.078;2023-08-08T00:52:42;96514.89;;;15.18;83.47
24302;BME280;12421;49.732;20.078;2023-08-08T01:03:09;96521.95;;;14.99;83.06
24302;BME280;12421;49.732;20.078;2023-08-08T01:13:19;96527.15;;;14.91;83.20
24302;BME280;12421;49.732;20.078;2023-08-08T01:23:46;96540.72;;;14.97;83.89
24302;BME280;12421;49.732;20.078;2023-08-08T01:33:49;96543.21;;;14.97;83.85
24302;BME280;12421;49.732;20.078;2023-08-08T01:43:53;96549.40;;;14.92;83.11
24302;BME280;12421;49.732;20.078;2023-08-08T01:53:57;96565.21;;;14.74;83.33
24302;BME280;12421;49.732;20.078;2023-08-08T02:04:00;96569.32;;;14.56;83.94
24302;BME280;12421;49.732;20.078;2023-08-08T02:14:03;96573.60;;;14.44;84.05
24302;BME280;12421;49.732;20.078;2023-08-08T02:24:06;96581.19;;;14.39;84.32
24302;BME280;12421;49.732;20.078;2023-08-08T02:34:09;96582.61;;;14.33;84.14
24302;BME280;12421;49.732;20.078;2023-08-08T02:44:13;96592.16;;;14.20;83.73
24302;BME280;12421;49.732;20.078;2023-08-08T02:54:16;96599.30;;;13.88;83.30
24302;BME280;12421;49.732;20.078;2023-08-08T03:04:19;96604.66;;;13.74;83.96
24302;BME280;12421;49.732;20.078;2023-08-08T03:14:23;96614.19;;;13.61;83.83
24302;BME280;12421;49.732;20.078;2023-08-08T03:24:26;96618.80;;;13.60;83.94
24302;BME280;12421;49.732;20.078;2023-08-08T03:34:55;96638.23;;;13.53;83.68
24302;BME280;12421;49.732;20.078;2023-08-08T03:44:59;96647.34;;;13.42;83.68
24302;BME280;12421;49.732;20.078;2023-08-08T03:55:04;96654.04;;;13.36;84.24
24302;BME280;12421;49.732;20.078;2023-08-08T04:05:08;96670.35;;;13.38;84.10
24302;BME280;12421;49.732;20.078;2023-08-08T04:15:11;96685.67;;;13.52;85.31
24302;BME280;12421;49.732;20.078;2023-08-08T04:25:15;96702.48;;;13.70;84.81
24302;BME280;12421;49.732;20.078;2023-08-08T04:35:18;96704.48;;;13.81;85.03
24302;BME280;12421;49.732;20.078;2023-08-08T04:45:22;96699.71;;;14.13;85.19
24302;BME280;12421;49.732;20.078;2023-08-08T04:55:25;96709.19;;;14.40;84.88
24302;BME280;12421;49.732;20.078;2023-08-08T05:05:29;96723.55;;;14.74;84.28
24302;BME280;12421;49.732;20.078;2023-08-08T05:15:32;96738.02;;;15.14;83.48
24302;BME280;12421;49.732;20.078;2023-08-08T05:25:35;96746.39;;;15.61;82.63
24302;BME280;12421;49.732;20.078;2023-08-08T05:35:38;96753.43;;;15.98;80.65
24302;BME280;12421;49.732;20.078;2023-08-08T05:45:41;96764.60;;;16.03;79.18
24302;BME280;12421;49.732;20.078;2023-08-08T05:55:44;96771.70;;;16.27;78.88
24302;BME280;12421;49.732;20.078;2023-08-08T06:05:47;96768.23;;;16.60;77.76
24302;BME280;12421;49.732;20.078;2023-08-08T06:15:51;96751.89;;;16.97;76.05
24302;BME280;12421;49.732;20.078;2023-08-08T06:25:54;96747.90;;;18.11;73.40
24302;BME280;12421;49.732;20.078;2023-08-08T06:35:57;96753.91;;;18.79;69.84
24302;BME280;12421;49.732;20.078;2023-08-08T06:46:00;96747.35;;;19.42;66.91
24302;BME280;12421;49.732;20.078;2023-08-08T06:56:04;96749.02;;;20.80;63.38
24302;BME280;12421;49.732;20.078;2023-08-08T07:06:07;96739.80;;;21.20;60.56
24302;BME280;12421;49.732;20.078;2023-08-08T07:16:10;96740.89;;;21.98;59.18
24302;BME280;12421;49.732;20.078;2023-08-08T07:26:13;96738.98;;;22.21;57.26
24302;BME280;12421;49.732;20.078;2023-08-08T07:36:17;96743.75;;;22.77;55.53
24302;BME280;12421;49.732;20.078;2023-08-08T07:46:20;96745.08;;;22.18;55.34
24302;BME280;12421;49.732;20.078;2023-08-08T07:56:23;96744.04;;;22.38;53.28
24302;BME280;12421;49.732;20.078;2023-08-08T08:06:51;96740.08;;;22.81;52.19
24302;BME280;12421;49.732;20.078;2023-08-08T08:16:54;96736.38;;;22.83;49.58
24302;BME280;12421;49.732;20.078;2023-08-08T08:26:58;96740.42;;;21.84;49.24
24302;BME280;12421;49.732;20.078;2023-08-08T08:37:01;96743.84;;;21.44;49.92
24302;BME280;12421;49.732;20.078;2023-08-08T08:47:07;96738.85;;;21.12;52.37
24302;BME280;12421;49.732;20.078;2023-08-08T08:57:14;96745.07;;;21.13;51.75
24302;BME280;12421;49.732;20.078;2023-08-08T09:07:19;96746.31;;;20.90;50.93
24302;BME280;12421;49.732;20.078;2023-08-08T09:17:27;96747.61;;;20.89;51.39
24302;BME280;12421;49.732;20.078;2023-08-08T09:27:51;96742.02;;;20.77;51.84
24302;BME280;12421;49.732;20.078;2023-08-08T09:37:56;96731.22;;;21.11;50.32
24302;BME280;12421;49.732;20.078;2023-08-08T09:48:00;96726.54;;;21.15;49.71
24302;BME280;12421;49.732;20.078;2023-08-08T09:58:04;96723.34;;;21.40;49.16
24302;BME280;12421;49.732;20.078;2023-08-08T10:08:07;96724.98;;;21.55;48.54
24302;BME280;12421;49.732;20.078;2023-08-08T10:18:12;96731.92;;;21.52;49.05
24302;BME280;12421;49.732;20.078;2023-08-08T10:28:19;96715.82;;;21.50;49.72
24302;BME280;12421;49.732;20.078;2023-08-08T10:38:58;96717.38;;;21.03;50.28
24302;BME280;12421;49.732;20.078;2023-08-08T10:49:05;96714.98;;;20.46;50.89
24302;BME280;12421;49.732;20.078;2023-08-08T10:59:14;96715.45;;;20.54;51.66
24302;BME280;12421;49.732;20.078;2023-08-08T11:09:18;96721.23;;;21.26;50.10
24302;BME280;12421;49.732;20.078;2023-08-08T11:19:21;96724.47;;;21.45;48.47
24302;BME280;12421;49.732;20.078;2023-08-08T11:29:26;96729.80;;;21.82;49.03
24302;BME280;12421;49.732;20.078;2023-08-08T11:39:33;96728.17;;;21.98;49.58
24302;BME280;12421;49.732;20.078;2023-08-08T11:49:41;96745.36;;;21.70;50.97
24302;BME280;12421;49.732;20.078;2023-08-08T11:59:48;96745.31;;;21.49;53.31
24302;BME280;12421;49.732;20.078;2023-08-08T12:09:52;96745.66;;;21.34;52.82
24302;BME280;12421;49.732;20.078;2023-08-08T12:19:59;96750.58;;;21.29;53.11
24302;BME280;12421;49.732;20.078;2023-08-08T12:30:03;96740.32;;;21.55;51.11
24302;BME280;12421;49.732;20.078;2023-08-08T12:40:07;96726.61;;;21.45;50.51
24302;BME280;12421;49.732;20.078;2023-08-08T12:50:10;96717.84;;;21.30;51.23
24302;BME280;12421;49.732;20.078;2023-08-08T13:00:14;96702.73;;;21.26;50.91
24302;BME280;12421;49.732;20.078;2023-08-08T13:10:17;96705.57;;;21.44;47.59
24302;BME280;12421;49.732;20.078;2023-08-08T13:20:25;96708.84;;;21.25;48.90
24302;BME280;12421;49.732;20.078;2023-08-08T13:30:54;96712.71;;;21.41;50.42
24302;BME280;12421;49.732;20.078;2023-08-08T13:40:57;96714.64;;;21.85;48.80
24302;BME280;12421;49.732;20.078;2023-08-08T13:51:03;96714.40;;;21.52;49.37
24302;BME280;12421;49.732;20.078;2023-08-08T14:01:06;96722.84;;;21.48;50.63
24302;BME280;12421;49.732;20.078;2023-08-08T14:11:12;96716.86;;;21.53;49.79
24302;BME280;12421;49.732;20.078;2023-08-08T14:21:15;96720.53;;;21.73;49.79
24302;BME280;12421;49.732;20.078;2023-08-08T14:31:18;96734.31;;;21.60;49.73
24302;BME280;12421;49.732;20.078;2023-08-08T14:41:22;96735.77;;;21.53;49.47
24302;BME280;12421;49.732;20.078;2023-08-08T14:51:25;96738.23;;;21.48;49.80
24302;BME280;12421;49.732;20.078;2023-08-08T15:01:29;96740.02;;;21.39;49.04
24302;BME280;12421;49.732;20.078;2023-08-08T15:11:32;96745.54;;;21.33;50.56
24302;BME280;12421;49.732;20.078;2023-08-08T15:21:35;96742.41;;;21.03;52.79
24302;BME280;12421;49.732;20.078;2023-08-08T15:31:38;96743.06;;;20.75;53.86
24302;BME280;12421;49.732;20.078;2023-08-08T15:41:41;96737.21;;;20.50;53.22
24302;BME280;12421;49.732;20.078;2023-08-08T15:51:45;96742.88;;;20.28;54.33
24302;BME280;12421;49.732;20.078;2023-08-08T16:01:49;96750.59;;;20.03;54.72
24302;BME280;12421;49.732;20.078;2023-08-08T16:11:52;96749.86;;;19.82;55.95
24302;BME280;12421;49.732;20.078;2023-08-08T16:21:55;96753.42;;;19.57;57.32
24302;BME280;12421;49.732;20.078;2023-08-08T16:31:58;96751.39;;;19.10;58.98
24302;BME280;12421;49.732;20.078;2023-08-08T16:42:02;96749.07;;;18.76;60.83
24302;BME280;12421;49.732;20.078;2023-08-08T16:52:06;96753.60;;;18.59;61.77
24302;BME280;12421;49.732;20.078;2023-08-08T17:02:09;96752.19;;;18.44;63.02
24302;BME280;12421;49.732;20.078;2023-08-08T17:12:12;96749.44;;;18.29;63.58
24302;BME280;12421;49.732;20.078;2023-08-08T17:22:16;96747.51;;;18.12;64.33
24302;BME280;12421;49.732;20.078;2023-08-08T17:32:19;96754.75;;;17.68;65.90
24302;BME280;12421;49.732;20.078;2023-08-08T17:42:23;96767.67;;;17.29;67.36
24302;BME280;12421;49.732;20.078;2023-08-08T17:52:26;96781.40;;;16.91;67.59
24302;BME280;12421;49.732;20.078;2023-08-08T18:02:30;96786.37;;;16.48;68.40
24302;BME280;12421;49.732;20.078;2023-08-08T18:12:34;96790.35;;;15.85;68.93
24302;BME280;12421;49.732;20.078;2023-08-08T18:22:37;96795.23;;;15.33;69.92
24302;BME280;12421;49.732;20.078;2023-08-08T18:32:43;96803.63;;;14.90;70.96
24302;BME280;12421;49.732;20.078;2023-08-08T18:42:47;96811.85;;;14.45;71.88
24302;BME280;12421;49.732;20.078;2023-08-08T18:52:50;96821.10;;;14.16;72.58
24302;BME280;12421;49.732;20.078;2023-08-08T19:02:54;96819.99;;;13.83;72.78
24302;BME280;12421;49.732;20.078;2023-08-08T19:12:58;96819.54;;;13.53;73.32
24302;BME280;12421;49.732;20.078;2023-08-08T19:23:01;96816.11;;;13.27;74.16
24302;BME280;12421;49.732;20.078;2023-08-08T19:33:05;96811.79;;;13.00;74.48
24302;BME280;12421;49.732;20.078;2023-08-08T19:43:08;96807.58;;;12.82;75.35
24302;BME280;12421;49.732;20.078;2023-08-08T19:53:12;96805.61;;;12.59;75.97
24302;BME280;12421;49.732;20.078;2023-08-08T20:03:18;96817.27;;;12.40;76.48
24302;BME280;12421;49.732;20.078;2023-08-08T20:13:21;96817.52;;;12.27;77.14
24302;BME280;12421;49.732;20.078;2023-08-08T20:23:27;96819.68;;;12.24;77.59
24302;BME280;12421;49.732;20.078;2023-08-08T20:33:32;96820.10;;;12.12;78.19
24302;BME280;12421;49.732;20.078;2023-08-08T20:43:36;96818.59;;;11.99;78.54
24302;BME280;12421;49.732;20.078;2023-08-08T20:53:42;96814.08;;;11.86;78.71
24302;BME280;12421;49.732;20.078;2023-08-08T21:03:45;96810.11;;;11.81;78.94
24302;BME280;12421;49.732;20.078;2023-08-08T21:13:48;96814.67;;;11.72;79.12
24302;BME280;12421;49.732;20.078;2023-08-08T21:23:51;96818.12;;;11.65;79.12
24302;BME280;12421;49.732;20.078;2023-08-08T21:33:55;96815.59;;;11.47;79.62
24302;BME280;12421;49.732;20.078;2023-08-08T21:43:58;96811.52;;;11.48;80.43
24302;BME280;12421;49.732;20.078;2023-08-08T21:54:02;96801.12;;;11.59;80.85
24302;BME280;12421;49.732;20.078;2023-08-08T22:04:05;96793.27;;;11.69;81.38
24302;BME280;12421;49.732;20.078;2023-08-08T22:14:09;96796.79;;;11.79;81.62
24302;BME280;12421;49.732;20.078;2023-08-08T22:24:13;96797.73;;;11.94;82.15
24302;BME280;12421;49.732;20.078;2023-08-08T22:34:16;96797.33;;;12.16;82.45
24302;BME280;12421;49.732;20.078;2023-08-08T22:44:20;96783.29;;;12.39;82.50
24302;BME280;12421;49.732;20.078;2023-08-08T22:54:23;96768.27;;;12.58;82.97
24302;BME280;12421;49.732;20.078;2023-08-08T23:04:27;96761.45;;;12.73;82.48
24302;BME280;12421;49.732;20.078;2023-08-08T23:14:30;96760.66;;;13.00;81.10
24302;BME280;12421;49.732;20.078;2023-08-08T23:24:34;96756.45;;;13.29;80.51
24302;BME280;12421;49.732;20.078;2023-08-08T23:34:37;96769.84;;;13.37;79.63
24302;BME280;12421;49.732;20.078;2023-08-08T23:44:40;96770.79;;;13.49;79.39
24302;BME280;12421;49.732;20.078;2023-08-08T23:54:46;96793.75;;;13.54;79.27
